Time;durP1;ratioP1;P1;durP2;ratioP2;P2;SDS_P1;SDS_P2;PMS_P1;PMS_P2;Temp;Humidity;BMP_temperature;BMP_pressure;BME280_temperature;BME280_humidity;BME280_pressure;Samples;Min_cycle;Max_cycle;Signal;HPM_P1;HPM_P2
2021/06/17 00:01:53;;;;;;;8.63;3.37;;;;;;;18.11;57.06;100871.59;1732850;80;31147;-79
2021/06/17 00:04:19;;;;;;;7.75;3.40;;;;;;;18.08;57.12;100868.04;1743724;81;35319;-79
2021/06/17 00:06:44;;;;;;;5.45;3.33;;;;;;;18.06;57.20;100870.90;1748359;80;26086;-79
2021/06/17 00:09:10;;;;;;;6.72;2.92;;;;;;;18.03;57.37;100871.28;1720214;81;25626;-74
2021/06/17 00:11:36;;;;;;;7.28;2.85;;;;;;;18.00;57.63;100872.20;1743640;81;33155;-74
2021/06/17 00:14:03;;;;;;;6.95;2.98;;;;;;;17.97;57.63;100877.37;1742455;80;25669;-74
2021/06/17 00:16:29;;;;;;;5.97;2.80;;;;;;;17.95;57.69;100874.11;1754197;81;25689;-79
2021/06/17 00:18:55;;;;;;;7.17;3.08;;;;;;;17.91;57.83;100877.67;1737201;81;25111;-79
2021/06/17 00:21:21;;;;;;;5.47;2.83;;;;;;;17.87;58.07;100879.11;1736210;81;25808;-79
2021/06/17 00:23:47;;;;;;;5.22;3.00;;;;;;;17.78;57.96;100882.09;1742897;80;33560;-79
2021/06/17 00:26:13;;;;;;;7.60;2.83;;;;;;;17.75;58.25;100880.66;1742820;81;31613;-79
2021/06/17 00:28:39;;;;;;;5.35;2.90;;;;;;;17.74;58.19;100881.69;1741123;80;25611;-79
2021/06/17 00:31:05;;;;;;;8.78;2.95;;;;;;;17.72;58.45;100882.38;1741008;80;32989;-79
2021/06/17 00:33:32;;;;;;;5.85;3.25;;;;;;;17.68;58.67;100881.16;1737058;81;25384;-79
2021/06/17 00:35:58;;;;;;;8.28;3.15;;;;;;;17.63;58.79;100886.23;1739097;80;25587;-74
2021/06/17 00:38:24;;;;;;;8.65;3.27;;;;;;;17.58;58.98;100884.17;1746522;80;25657;-74
2021/06/17 00:40:53;;;;;;;6.90;3.02;;;;;;;17.55;59.00;100880.61;1742597;80;34580;-79
2021/06/17 00:43:18;;;;;;;5.67;3.20;;;;;;;17.53;59.17;100882.62;1740534;80;25202;-79
2021/06/17 00:45:46;;;;;;;7.25;3.50;;;;;;;17.50;59.20;100879.05;1738022;80;26101;-79
2021/06/17 00:48:15;;;;;;;9.45;3.12;;;;;;;17.50;59.27;100881.19;1746175;80;25118;-79
2021/06/17 00:50:46;;;;;;;10.63;3.52;;;;;;;17.47;59.40;100882.10;1728155;81;26232;-79
2021/06/17 00:53:14;;;;;;;6.58;2.70;;;;;;;17.44;59.45;100883.81;1739328;81;25682;-74
2021/06/17 00:55:44;;;;;;;9.05;3.15;;;;;;;17.43;59.52;100876.88;1737504;81;25800;-73
2021/06/17 00:58:10;;;;;;;5.10;2.98;;;;;;;17.42;59.61;100881.88;1744862;81;25644;-74
2021/06/17 01:00:37;;;;;;;6.20;2.72;;;;;;;17.39;59.71;100876.98;1742552;80;26360;-74
2021/06/17 01:03:04;;;;;;;7.58;3.33;;;;;;;17.33;59.78;100873.81;1743780;80;25539;-79
2021/06/17 01:05:30;;;;;;;6.87;3.35;;;;;;;17.29;59.95;100872.05;1736962;81;25674;-79
2021/06/17 01:08:04;;;;;;;6.53;2.90;;;;;;;17.26;60.00;100879.86;1735472;81;25650;-79
2021/06/17 01:10:50;;;;;;;9.55;3.65;;;;;;;17.25;60.12;100876.92;1747205;80;25504;-79
2021/06/17 01:13:39;;;;;;;6.12;3.37;;;;;;;17.24;60.16;100883.23;1739058;80;25696;-79
2021/06/17 01:16:19;;;;;;;6.37;3.30;;;;;;;17.19;60.17;100881.67;1737658;81;26369;-79
2021/06/17 01:18:51;;;;;;;8.73;3.45;;;;;;;17.16;60.25;100878.11;1740453;80;25663;-79
2021/06/17 01:21:44;;;;;;;6.42;3.37;;;;;;;17.15;60.36;100882.25;1740194;81;25686;-78
2021/06/17 01:24:54;;;;;;;10.90;4.33;;;;;;;17.15;60.38;100879.61;1744033;80;25682;-79
2021/06/17 01:27:57;;;;;;;6.20;3.30;;;;;;;17.14;60.52;100871.38;1730091;80;25634;-78
2021/06/17 01:30:26;;;;;;;12.45;3.55;;;;;;;17.12;60.56;100880.00;1739389;81;25590;-79
2021/06/17 01:32:56;;;;;;;4.87;2.85;;;;;;;17.07;60.55;100878.75;1739499;81;25756;-79
2021/06/17 01:35:26;;;;;;;8.35;4.17;;;;;;;17.04;60.69;100876.50;1723090;81;25692;-79
2021/06/17 01:37:59;;;;;;;6.97;3.17;;;;;;;17.02;60.69;100863.17;1738152;81;25630;-79
2021/06/17 01:40:29;;;;;;;8.35;3.67;;;;;;;16.99;60.67;100864.37;1721669;80;25694;-79
2021/06/17 01:42:58;;;;;;;10.88;2.95;;;;;;;16.99;60.77;100863.06;1737422;81;25620;-79
2021/06/17 01:45:25;;;;;;;6.78;3.83;;;;;;;16.96;60.80;100863.45;1742788;80;26590;-79
2021/06/17 01:47:53;;;;;;;6.47;3.33;;;;;;;16.94;60.89;100865.49;1745853;80;26420;-79
2021/06/17 01:50:24;;;;;;;9.13;3.72;;;;;;;16.90;61.01;100869.52;1740399;80;25661;-79
2021/06/17 01:52:52;;;;;;;8.30;4.25;;;;;;;16.83;61.04;100872.61;1734543;81;25674;-74
2021/06/17 01:55:20;;;;;;;8.40;3.77;;;;;;;16.78;61.23;100873.21;1746331;80;25690;-74
2021/06/17 01:57:46;;;;;;;10.75;3.85;;;;;;;16.78;61.30;100875.04;1727486;81;25586;-74
2021/06/17 02:00:14;;;;;;;5.10;3.33;;;;;;;16.76;61.26;100873.06;1719817;81;25638;-73
2021/06/17 02:02:41;;;;;;;6.75;3.45;;;;;;;16.77;61.45;100877.34;1740124;81;25807;-73
2021/06/17 02:05:10;;;;;;;7.17;3.27;;;;;;;16.73;61.45;100883.50;1737795;81;25161;-74
2021/06/17 02:07:43;;;;;;;9.58;3.72;;;;;;;16.72;61.52;100879.20;1740690;81;25600;-73
2021/06/17 02:10:13;;;;;;;10.10;3.67;;;;;;;16.69;61.60;100884.06;1738807;80;25944;-73
2021/06/17 02:12:41;;;;;;;6.92;3.27;;;;;;;16.64;61.67;100876.23;1724781;81;25220;-74
2021/06/17 02:15:08;;;;;;;5.85;3.55;;;;;;;16.64;61.72;100878.03;1740645;81;25648;-73
2021/06/17 02:17:35;;;;;;;6.75;3.47;;;;;;;16.63;61.83;100877.73;1748173;81;25685;-73
2021/06/17 02:20:00;;;;;;;5.47;3.50;;;;;;;16.59;61.89;100880.45;1734679;81;25729;-73
2021/06/17 02:22:28;;;;;;;6.62;4.03;;;;;;;16.56;62.03;100880.34;1736514;81;34646;-73
2021/06/17 02:24:56;;;;;;;7.37;3.50;;;;;;;16.51;62.04;100877.45;1733111;81;25634;-73
2021/06/17 02:27:29;;;;;;;9.05;3.47;;;;;;;16.42;62.18;100883.38;1741113;80;25656;-74
2021/06/17 02:30:00;;;;;;;7.00;3.40;;;;;;;16.40;62.27;100882.73;1736315;81;25736;-73
2021/06/17 02:32:28;;;;;;;12.55;4.12;;;;;;;16.41;62.42;100883.04;1740187;80;25639;-74
2021/06/17 02:34:57;;;;;;;10.85;4.12;;;;;;;16.42;62.55;100877.25;1722086;81;25721;-73
2021/06/17 02:37:24;;;;;;;15.03;4.25;;;;;;;16.45;62.60;100884.81;1766172;80;25167;-74
2021/06/17 02:39:51;;;;;;;7.85;4.00;;;;;;;16.47;62.63;100879.33;1759344;80;25580;-74
2021/06/17 02:42:20;;;;;;;9.83;3.72;;;;;;;16.47;62.67;100884.09;1723391;80;25649;-74
2021/06/17 02:44:49;;;;;;;6.42;3.45;;;;;;;16.49;62.58;100887.88;1738862;80;25838;-79
2021/06/17 02:47:16;;;;;;;7.78;4.17;;;;;;;16.50;62.71;100881.58;1738163;80;25627;-79
2021/06/17 02:49:42;;;;;;;7.62;3.47;;;;;;;16.53;62.77;100885.16;1741751;81;25635;-73
2021/06/17 02:52:09;;;;;;;7.83;3.25;;;;;;;16.54;62.85;100878.89;1738484;80;25562;-74
2021/06/17 02:54:35;;;;;;;10.32;3.67;;;;;;;16.52;62.74;100880.39;1739222;81;25128;-74
2021/06/17 02:57:33;;;;;;;5.95;3.20;;;;;;;16.46;62.82;100882.98;1733799;81;25635;-74
2021/06/17 03:00:09;;;;;;;9.03;4.05;;;;;;;16.44;62.94;100883.16;1742206;80;25590;-74
2021/06/17 03:03:04;;;;;;;7.17;3.62;;;;;;;16.46;63.07;100875.07;1735452;81;25608;-74
2021/06/17 03:05:43;;;;;;;8.08;3.90;;;;;;;16.48;62.98;100879.63;1742432;81;25835;-79
2021/06/17 03:08:45;;;;;;;5.83;3.70;;;;;;;16.48;63.01;100883.59;1740982;80;25653;-74
2021/06/17 03:11:13;;;;;;;9.83;3.75;;;;;;;16.47;63.16;100880.65;1730167;80;26292;-74
2021/06/17 03:13:46;;;;;;;9.55;3.80;;;;;;;16.49;63.35;100886.56;1742946;81;25160;-74
2021/06/17 03:16:17;;;;;;;6.17;3.52;;;;;;;16.45;63.30;100882.17;1745530;80;25577;-78
2021/06/17 03:18:45;;;;;;;9.45;3.67;;;;;;;16.45;63.38;100890.09;1741851;80;25704;-79
2021/06/17 03:21:12;;;;;;;7.30;3.62;;;;;;;16.46;63.45;100889.58;1739001;81;25730;-79
2021/06/17 03:23:42;;;;;;;7.50;3.50;;;;;;;16.46;63.65;100894.35;1735954;80;25614;-79
2021/06/17 03:26:12;;;;;;;8.55;3.30;;;;;;;16.47;63.81;100889.38;1739726;81;26266;-78
2021/06/17 03:28:39;;;;;;;6.62;3.60;;;;;;;16.49;63.82;100891.33;1740212;81;32933;-79
2021/06/17 03:31:09;;;;;;;10.50;3.70;;;;;;;16.51;63.77;100893.80;1731240;80;26502;-78
2021/06/17 03:33:38;;;;;;;8.50;4.10;;;;;;;16.53;63.80;100906.27;1743748;80;31228;-79
2021/06/17 03:36:07;;;;;;;6.15;3.67;;;;;;;16.54;63.84;100899.49;1717033;81;25685;-79
2021/06/17 03:38:34;;;;;;;6.37;3.23;;;;;;;16.61;63.77;100904.81;1735535;81;25650;-79
2021/06/17 03:41:03;;;;;;;8.08;3.55;;;;;;;16.67;63.69;100901.91;1741483;81;25583;-79
2021/06/17 03:43:31;;;;;;;8.55;4.37;;;;;;;16.70;63.69;100905.00;1740799;81;25639;-79
2021/06/17 03:45:59;;;;;;;8.83;3.67;;;;;;;16.76;63.73;100904.73;1745889;80;25734;-79
2021/06/17 03:48:26;;;;;;;5.72;2.90;;;;;;;16.79;63.59;100908.34;1707702;82;25864;-78
2021/06/17 03:50:52;;;;;;;9.23;3.60;;;;;;;16.82;63.45;100906.63;1740206;81;25581;-78
2021/06/17 03:53:22;;;;;;;7.17;3.45;;;;;;;16.86;63.41;100911.86;1743229;80;25916;-73
2021/06/17 03:55:52;;;;;;;;;;;;;;;16.88;63.37;100911.64;1743244;80;26375;-73
2021/06/17 03:58:26;;;;;;;15.87;4.13;;;;;;;16.91;63.35;100908.10;1737148;80;25144;-74
2021/06/17 04:00:56;;;;;;;11.63;3.65;;;;;;;16.91;63.28;100905.97;1738445;81;25666;-74
2021/06/17 04:03:26;;;;;;;8.50;3.40;;;;;;;16.90;63.31;100906.48;1740524;81;32323;-74
2021/06/17 04:05:55;;;;;;;10.32;3.47;;;;;;;16.97;63.13;100910.00;1719752;81;25200;-74
2021/06/17 04:08:29;;;;;;;8.63;3.70;;;;;;;17.04;63.11;100907.38;1741346;81;25722;-74
2021/06/17 04:10:59;;;;;;;6.10;3.55;;;;;;;17.09;63.03;100903.66;1744985;81;25686;-75
2021/06/17 04:13:30;;;;;;;5.50;3.40;;;;;;;17.15;62.91;100906.03;1730302;80;25702;-74
2021/06/17 04:15:58;;;;;;;10.23;3.47;;;;;;;17.20;62.83;100908.39;1748928;81;25658;-74
2021/06/17 04:18:26;;;;;;;8.48;3.70;;;;;;;17.28;62.68;100905.59;1737131;80;25919;-79
2021/06/17 04:20:54;;;;;;;7.75;3.45;;;;;;;17.37;62.51;100908.88;1736618;81;26117;-79
2021/06/17 04:23:22;;;;;;;7.15;2.85;;;;;;;17.40;62.27;100915.60;1737744;81;25646;-79
2021/06/17 04:25:49;;;;;;;9.05;3.77;;;;;;;17.48;62.06;100919.40;1739210;80;25697;-79
2021/06/17 04:28:16;;;;;;;9.60;3.80;;;;;;;17.55;61.86;100921.58;1740253;81;25882;-79
2021/06/17 04:30:42;;;;;;;14.10;3.40;;;;;;;17.62;61.63;100917.63;1739234;81;25501;-79
2021/06/17 04:33:12;;;;;;;8.98;3.42;;;;;;;17.70;61.44;100917.45;1739579;80;25689;-79
2021/06/17 04:35:43;;;;;;;9.48;3.10;;;;;;;17.77;61.44;100918.81;1738926;81;25655;-79
2021/06/17 04:38:12;;;;;;;6.70;2.77;;;;;;;17.85;61.27;100922.13;1736597;81;25197;-79
2021/06/17 04:40:40;;;;;;;6.78;3.25;;;;;;;17.90;61.09;100927.63;1732682;81;25713;-79
2021/06/17 04:43:08;;;;;;;6.72;3.25;;;;;;;17.94;60.68;100922.23;1741405;81;25666;-79
2021/06/17 04:45:34;;;;;;;8.05;3.20;;;;;;;18.03;60.54;100921.54;1740820;81;25539;-79
2021/06/17 04:48:08;;;;;;;7.33;3.45;;;;;;;18.11;60.33;100914.73;1741234;80;25755;-79
2021/06/17 04:50:31;;;;;;;5.85;2.98;;;;;;;18.19;60.15;100915.88;1708622;81;25753;-79
2021/06/17 04:53:04;;;;;;;8.48;3.27;;;;;;;18.27;60.06;100910.90;1736600;81;34727;-79
2021/06/17 04:55:31;;;;;;;7.47;2.80;;;;;;;18.35;59.61;100913.34;1748707;80;25610;-79
2021/06/17 04:57:56;;;;;;;8.60;3.40;;;;;;;18.45;59.48;100914.80;1752309;80;25930;-79
2021/06/17 05:00:22;;;;;;;6.00;2.87;;;;;;;18.52;59.39;100920.38;1733488;81;33163;-80
2021/06/17 05:02:48;;;;;;;6.70;3.00;;;;;;;18.59;58.95;100916.42;1734868;80;31191;-80
2021/06/17 05:05:14;;;;;;;7.42;3.08;;;;;;;18.64;58.83;100913.47;1735264;81;34707;-79
2021/06/17 05:12:56;;;;;;;10.20;2.85;;;;;;;18.92;58.21;100915.09;1739421;80;26487;-78
2021/06/17 05:15:23;;;;;;;8.58;3.27;;;;;;;19.01;58.22;100913.03;1733407;81;26542;-73
2021/06/17 05:17:49;;;;;;;6.97;2.70;;;;;;;19.08;58.23;100908.55;1743363;80;25607;-73
2021/06/17 05:20:15;;;;;;;6.83;2.83;;;;;;;19.15;57.98;100909.84;1748917;80;32942;-78
2021/06/17 05:22:44;;;;;;;13.38;3.15;;;;;;;19.23;57.78;100910.94;1736968;81;25664;-78
2021/06/17 05:25:12;;;;;;;11.22;3.40;;;;;;;19.29;57.52;100909.61;1739137;80;25689;-78
2021/06/17 05:27:39;;;;;;;5.35;2.77;;;;;;;19.38;57.43;100912.03;1748236;80;25189;-78
2021/06/17 05:30:08;;;;;;;6.45;3.15;;;;;;;19.47;57.30;100914.73;1739131;81;25816;-80
2021/06/17 05:32:34;;;;;;;5.75;2.70;;;;;;;19.55;57.25;100909.20;1746206;80;25563;-82
2021/06/17 05:35:00;;;;;;;5.90;2.20;;;;;;;19.63;57.20;100912.94;1754964;80;26398;-80
2021/06/17 05:37:26;;;;;;;9.30;2.85;;;;;;;19.72;57.14;100917.52;1747370;80;32999;-80
2021/06/17 05:39:52;;;;;;;6.80;2.47;;;;;;;19.81;57.10;100913.61;1734516;81;25745;-80
2021/06/17 05:42:19;;;;;;;7.25;2.62;;;;;;;19.91;56.96;100911.80;1745266;80;25665;-81
2021/06/17 05:44:45;;;;;;;5.33;2.25;;;;;;;19.99;57.01;100915.53;1736332;81;25615;-81
2021/06/17 05:47:13;;;;;;;14.95;2.83;;;;;;;20.11;57.06;100919.14;1742808;80;26398;-81
2021/06/17 05:49:38;;;;;;;9.88;2.30;;;;;;;20.22;57.24;100920.82;1739781;79;25693;-81
2021/06/17 05:52:06;;;;;;;8.88;2.47;;;;;;;20.32;57.46;100927.77;1742783;81;31119;-82
2021/06/17 05:54:31;;;;;;;7.60;3.00;;;;;;;20.40;56.79;100923.00;1729692;81;26400;-82
2021/06/17 05:56:57;;;;;;;6.55;2.33;;;;;;;20.49;56.70;100923.57;1738120;80;25724;-82
2021/06/17 05:59:23;;;;;;;9.80;2.47;;;;;;;20.59;56.74;100931.87;1749647;80;25467;-83
2021/06/17 06:01:48;;;;;;;12.35;2.52;;;;;;;20.65;56.33;100932.04;1743853;80;33019;-83
2021/06/17 06:04:14;;;;;;;10.53;3.75;;;;;;;20.66;56.20;100934.49;1739377;80;31223;-83
2021/06/17 06:06:40;;;;;;;10.98;2.37;;;;;;;20.72;56.41;100942.11;1733828;80;25642;-84
2021/06/17 06:09:06;;;;;;;7.75;2.47;;;;;;;20.77;55.84;100939.61;1737267;79;25621;-83
2021/06/17 06:11:32;;;;;;;9.35;2.62;;;;;;;20.82;55.54;100943.77;1744980;81;25622;-83
2021/06/17 06:13:57;;;;;;;9.05;2.17;;;;;;;20.90;55.18;100938.17;1743398;81;33126;-83
2021/06/17 06:16:23;;;;;;;9.30;2.85;;;;;;;20.99;55.29;100946.66;1739606;81;31566;-84
2021/06/17 06:18:49;;;;;;;6.37;2.35;;;;;;;21.07;55.24;100946.38;1738941;80;25727;-83
2021/06/17 06:21:15;;;;;;;8.10;2.20;;;;;;;21.16;54.84;100950.36;1749702;80;25628;-83
2021/06/17 06:23:41;;;;;;;5.85;1.80;;;;;;;21.21;54.59;100945.20;1756271;80;26449;-83
2021/06/17 06:26:07;;;;;;;7.90;2.10;;;;;;;21.30;54.21;100949.70;1747775;80;33108;-83
2021/06/17 06:28:33;;;;;;;8.38;1.82;;;;;;;21.37;53.91;100944.33;1749385;80;27848;-83
2021/06/17 06:30:59;;;;;;;8.80;2.27;;;;;;;21.40;53.19;100952.70;1733323;80;25777;-83
2021/06/17 06:33:25;;;;;;;5.03;2.12;;;;;;;21.44;53.21;100959.70;1733492;81;25603;-84
2021/06/17 06:35:52;;;;;;;13.15;2.50;;;;;;;21.48;53.10;100963.56;1747699;79;25840;-84
2021/06/17 06:38:18;;;;;;;15.28;2.30;;;;;;;21.55;53.04;100962.95;1737844;81;25617;-83
2021/06/17 06:40:44;;;;;;;6.45;2.08;;;;;;;21.65;52.98;100970.42;1733916;80;25662;-79
2021/06/17 06:43:12;;;;;;;10.75;2.72;;;;;;;21.69;52.38;100973.75;1741495;80;25363;-77
2021/06/17 06:45:38;;;;;;;9.55;2.55;;;;;;;21.73;52.41;100975.44;1741179;80;26076;-82
2021/06/17 06:48:05;;;;;;;8.55;2.27;;;;;;;21.81;52.52;100978.31;1730798;81;26310;-81
2021/06/17 06:50:32;;;;;;;5.33;2.20;;;;;;;21.86;52.44;100976.60;1733206;81;25706;-79
2021/06/17 06:52:58;;;;;;;12.95;2.40;;;;;;;21.97;52.80;100987.01;1729492;80;25764;-79
2021/06/17 06:55:24;;;;;;;15.63;2.47;;;;;;;22.06;52.31;100983.51;1729992;80;25705;-78
2021/06/17 06:57:50;;;;;;;9.83;2.90;;;;;;;22.09;52.05;100985.19;1706022;81;25229;-78
2021/06/17 07:00:18;;;;;;;12.58;2.50;;;;;;;22.16;51.76;100981.93;1737005;80;26279;-78
2021/06/17 07:02:44;;;;;;;9.13;2.60;;;;;;;22.21;51.60;100991.11;1735649;80;25185;-79
2021/06/17 07:05:12;;;;;;;16.70;2.62;;;;;;;22.28;52.02;100987.31;1728564;81;25526;-79
2021/06/17 07:07:39;;;;;;;10.05;2.75;;;;;;;22.39;51.02;100996.38;1738321;80;25643;-77
2021/06/17 07:10:07;;;;;;;7.92;1.70;;;;;;;22.45;51.04;100995.98;1730165;81;25740;-76
2021/06/17 07:12:34;;;;;;;6.72;2.12;;;;;;;22.52;51.12;100993.52;1733038;81;25714;-78
2021/06/17 07:15:00;;;;;;;13.62;2.40;;;;;;;22.62;50.61;100994.30;1734867;81;25226;-77
2021/06/17 07:17:27;;;;;;;11.43;2.33;;;;;;;22.67;50.33;100989.59;1722750;80;25796;-76
2021/06/17 07:19:56;;;;;;;7.17;2.17;;;;;;;22.74;50.60;100982.32;1737880;80;25748;-77
2021/06/17 07:22:24;;;;;;;10.88;2.37;;;;;;;22.80;49.84;100984.86;1731712;80;25652;-76
2021/06/17 07:24:53;;;;;;;15.55;2.30;;;;;;;22.87;49.48;100991.43;1729675;81;25621;-73
2021/06/17 07:27:18;;;;;;;6.67;2.22;;;;;;;22.94;49.64;100988.11;1739122;80;25665;-74
2021/06/17 07:29:44;;;;;;;17.40;2.65;;;;;;;23.03;49.55;100995.30;1738294;81;25599;-75
2021/06/17 07:32:10;;;;;;;12.00;2.27;;;;;;;23.12;49.87;100993.89;1728872;81;25691;-78
2021/06/17 07:34:36;;;;;;;13.15;3.08;;;;;;;23.22;49.99;100991.45;1706160;81;25233;-76
2021/06/17 07:37:03;;;;;;;8.28;2.35;;;;;;;23.33;49.59;101003.16;1730496;81;26072;-76
2021/06/17 07:39:31;;;;;;;8.18;2.12;;;;;;;23.41;48.95;101007.34;1737626;80;25683;-79
2021/06/17 07:41:57;;;;;;;4.87;2.02;;;;;;;23.48;49.12;101002.13;1733774;80;26287;-79
2021/06/17 07:44:24;;;;;;;5.42;2.25;;;;;;;23.59;48.63;101005.02;1705841;82;25207;-81
2021/06/17 07:46:50;;;;;;;8.68;2.47;;;;;;;23.65;48.66;101005.41;1737330;80;25602;-80
2021/06/17 07:49:16;;;;;;;5.37;2.10;;;;;;;23.70;48.67;101004.19;1741069;81;26330;-82
2021/06/17 07:51:42;;;;;;;10.58;2.30;;;;;;;23.77;48.71;100992.89;1737969;80;25789;-77
2021/06/17 07:54:08;;;;;;;7.87;2.77;;;;;;;23.83;48.36;100995.12;1738540;81;25544;-83
2021/06/17 07:56:34;;;;;;;9.50;4.22;;;;;;;23.88;48.54;100991.23;1735226;81;25697;-83
2021/06/17 07:59:00;;;;;;;9.53;2.77;;;;;;;23.93;48.43;100991.33;1733216;80;25149;-82
2021/06/17 08:01:26;;;;;;;12.23;2.58;;;;;;;23.99;48.32;100990.89;1739007;81;25501;-82
2021/06/17 08:03:53;;;;;;;5.90;2.45;;;;;;;24.04;48.42;100994.47;1732454;80;25823;-76
2021/06/17 08:06:20;;;;;;;11.12;2.90;;;;;;;24.09;48.17;100991.90;1751784;80;25649;-84
2021/06/17 08:08:46;;;;;;;10.15;2.75;;;;;;;24.13;47.84;100989.02;1741934;80;25613;-82
2021/06/17 08:11:12;;;;;;;8.93;2.58;;;;;;;24.18;47.74;100982.97;1736807;81;25630;-82
2021/06/17 08:13:41;;;;;;;8.55;2.72;;;;;;;24.28;47.75;100987.66;1743633;81;25606;-82
2021/06/17 08:16:07;;;;;;;5.22;3.12;;;;;;;24.34;47.59;100982.18;1707079;81;25758;-79
2021/06/17 08:18:33;;;;;;;13.32;2.80;;;;;;;24.35;47.20;100981.12;1741867;80;25602;-79
2021/06/17 08:21:01;;;;;;;7.40;2.58;;;;;;;24.37;47.66;100982.23;1719766;80;25644;-79
2021/06/17 08:23:26;;;;;;;10.15;4.03;;;;;;;24.43;46.98;100969.23;1755947;80;25816;-83
2021/06/17 08:25:52;;;;;;;7.92;3.15;;;;;;;24.44;47.77;100976.74;1758356;80;25620;-82
2021/06/17 08:28:23;;;;;;;8.88;2.62;;;;;;;24.53;48.14;100976.64;1743680;80;26017;-84
2021/06/17 08:30:47;;;;;;;10.23;3.30;;;;;;;24.63;48.12;100975.98;1737864;81;26285;-84
2021/06/17 08:33:13;;;;;;;8.30;4.28;;;;;;;24.71;47.75;100980.92;1738652;80;25663;-84
2021/06/17 08:35:39;;;;;;;8.80;2.70;;;;;;;24.72;47.65;100986.03;1744961;81;25569;-81
2021/06/17 08:38:05;;;;;;;8.65;2.62;;;;;;;24.76;47.62;100987.16;1743296;80;26369;-81
2021/06/17 08:40:34;;;;;;;9.73;2.50;;;;;;;24.84;47.59;100987.81;1737906;81;25647;-82
2021/06/17 08:43:01;;;;;;;8.03;2.50;;;;;;;24.90;47.33;100992.98;1733292;80;26502;-80
2021/06/17 08:45:28;;;;;;;4.05;2.30;;;;;;;24.95;46.96;100989.58;1738964;80;26110;-81
2021/06/17 08:47:54;;;;;;;6.62;2.35;;;;;;;24.98;47.08;100995.77;1714629;81;25640;-80
2021/06/17 08:50:23;;;;;;;5.92;2.75;;;;;;;25.00;46.79;100998.48;1754770;80;25912;-85
2021/06/17 08:52:49;;;;;;;5.30;2.27;;;;;;;25.05;46.79;100992.94;1739268;81;25690;-84
2021/06/17 08:55:20;;;;;;;9.90;2.83;;;;;;;25.09;46.35;100998.06;1737128;81;25627;-80
2021/06/17 08:57:50;;;;;;;6.92;2.40;;;;;;;25.09;46.30;100990.84;1738282;79;25186;-83
2021/06/17 09:00:24;;;;;;;8.00;2.72;;;;;;;25.14;46.23;100998.14;1743491;81;25158;-82
2021/06/17 09:02:57;;;;;;;7.62;2.72;;;;;;;25.18;46.05;100993.43;1754622;80;25588;-84
2021/06/17 09:05:24;;;;;;;8.20;2.77;;;;;;;25.21;46.03;100991.59;1739622;80;25642;-83
2021/06/17 09:07:51;;;;;;;7.20;2.60;;;;;;;25.28;45.92;100995.42;1746800;80;25591;-81
2021/06/17 09:10:17;;;;;;;6.25;2.40;;;;;;;25.35;45.94;101000.08;1736788;81;25187;-81
2021/06/17 09:12:49;;;;;;;7.00;2.30;;;;;;;25.37;45.70;100999.81;1741484;81;25213;-79
2021/06/17 09:15:43;;;;;;;6.78;2.27;;;;;;;25.39;45.38;100999.84;1736047;80;26511;-79
2021/06/17 09:18:29;;;;;;;6.70;2.40;;;;;;;25.45;45.27;100996.20;1708731;81;25720;-77
2021/06/17 09:21:02;;;;;;;4.15;2.80;;;;;;;25.45;45.31;100993.52;1734838;80;25735;-80
2021/06/17 09:23:47;;;;;;;9.65;2.30;;;;;;;25.56;45.55;100989.61;1754124;80;25682;-80
2021/06/17 09:26:23;;;;;;;11.18;2.40;;;;;;;25.59;44.34;100995.80;1737455;81;25223;-79
2021/06/17 09:29:05;;;;;;;5.70;2.20;;;;;;;25.57;44.10;100997.41;1742436;81;25703;-79
2021/06/17 09:31:42;;;;;;;12.70;3.15;;;;;;;25.59;43.99;101005.17;1739748;80;25690;-78
2021/06/17 09:34:10;;;;;;;7.47;2.50;;;;;;;25.64;44.19;101007.38;1733101;80;25691;-79
2021/06/17 09:36:39;;;;;;;9.43;2.12;;;;;;;25.72;44.34;101003.45;1749097;81;26049;-80
2021/06/17 09:39:19;;;;;;;6.50;2.50;;;;;;;25.80;44.41;101001.67;1724521;81;25583;-79
2021/06/17 09:41:50;;;;;;;7.25;2.37;;;;;;;25.84;44.17;101000.16;1730686;81;25584;-80
2021/06/17 09:44:41;;;;;;;6.92;2.80;;;;;;;25.93;43.82;101001.86;1747148;80;26374;-80
2021/06/17 09:47:24;;;;;;;5.42;2.30;;;;;;;25.95;43.25;100998.41;1741728;80;25563;-77
2021/06/17 09:49:52;;;;;;;6.80;2.20;;;;;;;25.98;42.90;100999.77;1739677;80;25639;-76
2021/06/17 09:52:18;;;;;;;6.12;2.20;;;;;;;26.00;42.55;100994.95;1738022;80;25218;-76
2021/06/17 09:54:46;;;;;;;5.83;2.05;;;;;;;26.06;43.14;100987.27;1736298;80;25665;-76
2021/06/17 09:57:20;;;;;;;4.45;2.37;;;;;;;26.16;43.10;100987.34;1740036;80;25702;-74
2021/06/17 09:59:51;;;;;;;5.25;1.67;;;;;;;26.25;42.55;100990.39;1738315;80;26465;-78
2021/06/17 10:02:25;;;;;;;3.62;1.90;;;;;;;26.29;42.23;100988.81;1740162;81;25719;-74
2021/06/17 10:05:13;;;;;;;5.50;1.62;;;;;;;26.27;42.22;100982.37;1743815;80;25649;-74
2021/06/17 10:07:38;;;;;;;4.92;1.80;;;;;;;26.39;41.66;100980.06;1738774;81;26392;-78
2021/06/17 10:10:06;;;;;;;5.37;1.45;;;;;;;26.46;41.11;100977.95;1720740;81;25217;-80
2021/06/17 10:12:32;;;;;;;4.90;2.02;;;;;;;26.50;41.14;100977.20;1735774;81;25460;-79
2021/06/17 10:15:00;;;;;;;7.80;1.85;;;;;;;26.54;40.88;100968.13;1736651;81;25620;-78
2021/06/17 10:17:27;;;;;;;5.58;2.20;;;;;;;26.57;40.91;100972.98;1734853;81;25600;-78
2021/06/17 10:19:57;;;;;;;12.73;2.00;;;;;;;26.60;41.00;100971.66;1740014;81;25638;-79
2021/06/17 10:22:28;;;;;;;10.88;2.33;;;;;;;26.64;41.03;100978.14;1753185;80;25613;-78
2021/06/17 10:24:55;;;;;;;6.00;1.90;;;;;;;26.63;40.63;100972.48;1742167;80;25601;-78
2021/06/17 10:27:30;;;;;;;5.85;1.82;;;;;;;26.65;40.70;100968.48;1740704;80;25592;-78
2021/06/17 10:29:57;;;;;;;6.03;2.10;;;;;;;26.72;40.46;100969.62;1743364;81;25729;-78
2021/06/17 10:32:43;;;;;;;5.80;1.87;;;;;;;26.81;40.27;100965.91;1740344;80;25694;-78
2021/06/17 10:35:10;;;;;;;5.75;1.90;;;;;;;26.82;40.64;100966.17;1767168;80;25602;-78
2021/06/17 10:37:59;;;;;;;4.83;1.62;;;;;;;26.93;40.27;100963.32;1718437;81;25238;-79
2021/06/17 10:40:25;;;;;;;5.22;1.82;;;;;;;26.98;39.44;100959.33;1730305;79;25592;-79
2021/06/17 10:42:56;;;;;;;6.62;1.50;;;;;;;26.99;40.15;100964.16;1734675;80;25748;-80
2021/06/17 10:45:40;;;;;;;4.95;1.67;;;;;;;27.01;39.77;100952.64;1735619;80;25681;-76
2021/06/17 10:48:21;;;;;;;4.65;1.82;;;;;;;27.06;39.10;100944.59;1735224;80;25686;-76
2021/06/17 10:50:56;;;;;;;5.50;1.65;;;;;;;26.98;39.68;100939.20;1726674;81;25680;-80
2021/06/17 10:53:40;;;;;;;5.87;1.80;;;;;;;27.07;39.81;100942.20;1747325;80;25743;-78
2021/06/17 10:56:16;;;;;;;5.65;1.75;;;;;;;27.19;39.55;100950.05;1726541;81;25739;-78
2021/06/17 10:58:51;;;;;;;6.65;2.00;;;;;;;27.29;39.68;100950.65;1741546;80;26456;-78
2021/06/17 11:01:42;;;;;;;7.22;1.70;;;;;;;27.37;39.17;100950.95;1738116;80;25681;-79
2021/06/17 11:04:16;;;;;;;3.98;1.50;;;;;;;27.41;38.89;100949.88;1732596;81;25388;-80
2021/06/17 11:07:05;;;;;;;3.98;1.60;;;;;;;27.45;38.93;100955.01;1739349;80;25698;-79
2021/06/17 11:09:39;;;;;;;;;;;;;;;27.52;38.65;100950.18;1743043;80;26352;-77
2021/06/17 11:12:27;;;;;;;8.15;1.60;;;;;;;27.57;38.17;100950.74;1744486;81;25585;-77
2021/06/17 11:14:57;;;;;;;5.37;1.42;;;;;;;27.56;37.48;100940.53;1743215;81;25184;-78
2021/06/17 11:17:33;;;;;;;8.60;2.08;;;;;;;27.54;37.90;100937.84;1749610;80;25649;-77
2021/06/17 11:20:12;;;;;;;5.30;1.45;;;;;;;27.67;38.56;100930.09;1726751;80;25714;-77
2021/06/17 11:22:49;;;;;;;5.20;1.57;;;;;;;27.83;38.55;100924.78;1746327;80;25132;-77
2021/06/17 11:25:22;;;;;;;7.22;1.62;;;;;;;27.96;38.05;100926.92;1735008;81;25705;-75
2021/06/17 11:28:07;;;;;;;24.65;2.50;;;;;;;28.02;37.71;100931.77;1754441;80;25692;-76
2021/06/17 11:30:46;;;;;;;8.08;2.22;;;;;;;28.02;37.51;100931.26;1747691;80;25701;-76
2021/06/17 11:33:26;;;;;;;4.17;1.87;;;;;;;28.08;37.37;100927.48;1752228;80;25620;-81
2021/06/17 11:36:02;;;;;;;5.97;1.60;;;;;;;28.16;37.21;100930.73;1736011;81;25694;-77
2021/06/17 11:38:32;;;;;;;8.13;2.00;;;;;;;28.22;37.14;100928.30;1747405;80;26276;-77
2021/06/17 11:41:15;;;;;;;7.45;1.77;;;;;;;28.29;37.14;100926.13;1730287;81;25759;-77
2021/06/17 11:43:42;;;;;;;9.05;1.70;;;;;;;28.37;36.59;100922.09;1743992;80;25663;-75